Time;durP1;ratioP1;P1;durP2;ratioP2;P2;SDS_P1;SDS_P2;PMS_P1;PMS_P2;Temp;Humidity;BMP_temperature;BMP_pressure;BME280_temperature;BME280_humidity;BME280_pressure;Samples;Min_cycle;Max_cycle;Signal;HPM_P1;HPM_P2
2022/04/03 00:01:55;;;;;;;3.05;2.50;;;-1.20;99.90;;;;;;5036149;28;20037;-83
2022/04/03 00:04:21;;;;;;;3.60;2.63;;;-1.20;99.90;;;;;;5046716;28;20383;-83
2022/04/03 00:06:47;;;;;;;3.85;2.92;;;-1.20;99.90;;;;;;5036101;28;20060;-83
2022/04/03 00:09:12;;;;;;;3.20;2.90;;;-1.20;99.90;;;;;;5035876;28;20081;-83
2022/04/03 00:11:38;;;;;;;3.70;3.20;;;-1.10;99.90;;;;;;5036115;28;20054;-82
2022/04/03 00:14:03;;;;;;;4.28;3.30;;;-1.10;99.90;;;;;;5036007;28;20097;-83
2022/04/03 00:16:29;;;;;;;5.47;3.40;;;-1.10;99.90;;;;;;5035883;28;20486;-83
2022/04/03 00:18:55;;;;;;;4.95;3.70;;;-1.20;99.90;;;;;;5014987;28;20129;-83
2022/04/03 00:21:20;;;;;;;4.75;3.70;;;-1.20;99.90;;;;;;5032583;28;20064;-83
2022/04/03 00:23:47;;;;;;;4.60;3.70;;;-1.20;99.90;;;;;;5033884;28;20056;-83
2022/04/03 00:26:13;;;;;;;4.55;3.63;;;-1.20;99.90;;;;;;5035291;28;20073;-84
2022/04/03 00:28:39;;;;;;;5.65;3.83;;;-1.20;99.90;;;;;;5018727;28;20041;-83
2022/04/03 00:31:04;;;;;;;5.50;3.75;;;-1.20;99.90;;;;;;5026700;28;20046;-82
2022/04/03 00:33:30;;;;;;;5.47;3.90;;;-1.20;99.90;;;;;;5029687;28;20068;-83
2022/04/03 00:35:56;;;;;;;5.28;4.03;;;-1.20;99.90;;;;;;5031903;28;20410;-83
2022/04/03 00:38:21;;;;;;;6.90;5.15;;;-1.30;99.90;;;;;;5036275;28;20488;-82
2022/04/03 00:40:48;;;;;;;6.57;4.90;;;-1.30;99.90;;;;;;5036909;28;20045;-83
2022/04/03 00:43:14;;;;;;;5.80;4.65;;;-1.40;99.90;;;;;;5031857;28;20045;-82
2022/04/03 00:45:46;;;;;;;5.80;4.72;;;-1.40;99.90;;;;;;5027418;28;20447;-82
2022/04/03 00:48:12;;;;;;;8.13;4.50;;;-1.40;99.90;;;;;;5040359;28;20030;-84
2022/04/03 00:50:38;;;;;;;8.57;5.10;;;-1.40;99.90;;;;;;5020204;28;20033;-83
2022/04/03 00:53:04;;;;;;;5.05;4.55;;;-1.40;99.90;;;;;;5037954;28;20053;-83
2022/04/03 00:55:30;;;;;;;5.15;3.92;;;-1.50;99.90;;;;;;5036843;28;20433;-83
2022/04/03 00:57:59;;;;;;;6.05;4.00;;;-1.50;99.90;;;;;;5037546;28;20124;-83
2022/04/03 01:00:25;;;;;;;5.15;3.97;;;-1.50;99.90;;;;;;5030009;28;20053;-83
2022/04/03 01:02:50;;;;;;;5.07;3.63;;;-1.60;99.90;;;;;;5028729;28;20053;-83
2022/04/03 01:05:16;;;;;;;4.72;3.53;;;-1.60;99.90;;;;;;5012811;28;20042;-83
2022/04/03 01:07:43;;;;;;;4.40;3.78;;;-1.60;99.90;;;;;;5032007;28;20053;-81
2022/04/03 01:10:09;;;;;;;5.25;3.90;;;-1.60;99.90;;;;;;5036218;28;20048;-83
2022/04/03 01:12:46;;;;;;;4.72;4.13;;;-1.60;99.90;;;;;;5018519;28;20033;-82
2022/04/03 01:15:16;;;;;;;5.72;4.00;;;-1.70;99.90;;;;;;5015222;28;20038;-82
2022/04/03 01:17:43;;;;;;;5.32;3.88;;;-1.60;99.90;;;;;;4998708;28;20053;-82
2022/04/03 01:20:09;;;;;;;5.43;4.22;;;-1.50;99.90;;;;;;5026303;28;20120;-82
2022/04/03 01:22:35;;;;;;;4.28;3.75;;;-1.50;99.90;;;;;;5033679;28;20045;-83
2022/04/03 01:25:01;;;;;;;5.50;4.07;;;-1.50;99.90;;;;;;5034182;28;20440;-82
2022/04/03 01:27:27;;;;;;;5.85;4.60;;;-1.50;99.90;;;;;;5018149;28;20092;-82
2022/04/03 01:29:52;;;;;;;5.55;4.15;;;-1.60;99.90;;;;;;5030511;28;20026;-82
2022/04/03 01:32:20;;;;;;;4.75;3.80;;;-1.60;99.90;;;;;;5033272;28;20050;-82
2022/04/03 01:34:46;;;;;;;4.57;3.78;;;-1.60;99.90;;;;;;5006918;28;20045;-82
2022/04/03 01:37:12;;;;;;;5.22;4.10;;;-1.60;99.90;;;;;;5032325;28;20517;-82
2022/04/03 01:39:38;;;;;;;5.50;3.80;;;-1.60;99.90;;;;;;5034774;28;20426;-82
2022/04/03 01:42:04;;;;;;;5.00;3.95;;;-1.60;99.90;;;;;;5037148;28;20391;-84
2022/04/03 01:44:30;;;;;;;5.53;4.03;;;-1.60;99.90;;;;;;5006571;28;20038;-83
2022/04/03 01:46:56;;;;;;;5.05;3.95;;;-1.60;99.90;;;;;;5039950;28;20042;-83
2022/04/03 01:49:21;;;;;;;6.43;3.97;;;-1.60;99.90;;;;;;5039179;28;20117;-83
2022/04/03 01:51:47;;;;;;;5.53;3.95;;;-1.60;99.90;;;;;;5039598;28;20041;-83
2022/04/03 01:54:13;;;;;;;6.82;3.85;;;-1.60;99.90;;;;;;5040486;28;20102;-82
2022/04/03 01:56:39;;;;;;;4.00;3.53;;;-1.60;99.90;;;;;;5035828;28;20117;-82
2022/04/03 01:59:05;;;;;;;5.93;4.00;;;-1.70;99.90;;;;;;5018758;28;20124;-83
2022/04/03 02:01:33;;;;;;;6.30;4.13;;;-1.70;99.90;;;;;;5039555;28;20052;-83
2022/04/03 02:04:00;;;;;;;4.07;3.47;;;-1.70;99.90;;;;;;5035192;28;20053;-83
2022/04/03 02:06:29;;;;;;;4.90;3.75;;;-1.70;99.90;;;;;;5039381;28;20072;-83
2022/04/03 02:08:54;;;;;;;7.20;3.97;;;-1.80;99.90;;;;;;5038675;28;20054;-83
2022/04/03 02:11:21;;;;;;;8.55;4.20;;;-1.80;99.90;;;;;;5038350;28;20045;-83
2022/04/03 02:13:47;;;;;;;4.35;3.53;;;-1.80;99.90;;;;;;5021978;28;20042;-83
2022/04/03 02:16:14;;;;;;;4.32;3.60;;;-1.80;99.90;;;;;;5035696;28;20509;-82
2022/04/03 02:18:40;;;;;;;4.50;3.80;;;-1.80;99.90;;;;;;5029013;28;20041;-83
2022/04/03 02:21:05;;;;;;;5.15;3.88;;;-1.80;99.90;;;;;;5039237;28;20045;-83
2022/04/03 02:23:31;;;;;;;4.68;3.45;;;-1.80;99.90;;;;;;5038718;28;20033;-83
2022/04/03 02:25:57;;;;;;;5.28;3.47;;;-1.80;99.90;;;;;;5035944;28;20045;-83
2022/04/03 02:28:22;;;;;;;4.75;3.67;;;-1.80;99.90;;;;;;5008062;28;20112;-83
2022/04/03 02:30:48;;;;;;;5.47;3.70;;;-1.80;99.90;;;;;;5038187;28;20060;-82
2022/04/03 02:33:17;;;;;;;4.20;3.63;;;-1.80;99.90;;;;;;5039579;28;20043;-83
2022/04/03 02:35:42;;;;;;;4.38;3.55;;;-1.80;99.90;;;;;;5037697;28;20033;-82
2022/04/03 02:38:08;;;;;;;3.55;3.25;;;-1.90;99.90;;;;;;5038141;28;20041;-83
2022/04/03 02:40:35;;;;;;;4.90;4.18;;;-1.90;99.90;;;;;;5038571;28;20091;-83
2022/04/03 02:43:00;;;;;;;5.15;3.85;;;-1.80;99.90;;;;;;5022582;28;20042;-82
2022/04/03 02:45:26;;;;;;;4.80;3.88;;;-1.80;99.90;;;;;;5038110;28;20125;-82
2022/04/03 02:47:54;;;;;;;4.75;3.53;;;-1.70;99.90;;;;;;5032885;28;20045;-82
2022/04/03 02:50:21;;;;;;;4.07;3.67;;;-1.60;99.90;;;;;;5037050;28;20052;-82
2022/04/03 02:52:48;;;;;;;5.43;3.55;;;-1.50;99.90;;;;;;5037276;28;20041;-83
2022/04/03 02:55:14;;;;;;;4.63;3.45;;;-1.40;99.90;;;;;;5037954;28;20049;-83
2022/04/03 02:57:39;;;;;;;3.97;3.58;;;-1.30;99.90;;;;;;5038281;28;20053;-83
2022/04/03 03:00:07;;;;;;;6.05;3.60;;;-1.20;99.90;;;;;;5037854;28;20037;-83
2022/04/03 03:02:33;;;;;;;7.00;3.60;;;-1.10;99.90;;;;;;5038963;28;20049;-83
2022/04/03 03:04:59;;;;;;;5.40;3.60;;;-1.00;99.90;;;;;;5036907;28;20120;-84
2022/04/03 03:07:34;;;;;;;4.70;3.80;;;-1.00;99.90;;;;;;5035338;28;20760;-83
2022/04/03 03:10:00;;;;;;;5.97;3.47;;;-0.90;99.90;;;;;;5019772;28;20045;-83
2022/04/03 03:12:25;;;;;;;3.95;3.28;;;-0.80;99.90;;;;;;5033924;28;20112;-83
2022/04/03 03:14:51;;;;;;;4.90;3.97;;;-0.70;99.90;;;;;;5031837;28;20046;-85
2022/04/03 03:17:16;;;;;;;5.15;3.92;;;-0.70;99.90;;;;;;5036753;28;20483;-84
2022/04/03 03:19:42;;;;;;;6.82;3.70;;;-0.60;99.90;;;;;;5025891;28;20044;-84
2022/04/03 03:22:08;;;;;;;4.90;3.67;;;-0.60;99.90;;;;;;5035333;28;20045;-85
2022/04/03 03:24:36;;;;;;;5.80;4.20;;;-0.60;99.90;;;;;;5012779;28;20050;-84
2022/04/03 03:27:05;;;;;;;4.68;3.78;;;-0.60;99.90;;;;;;5038225;28;20042;-83
2022/04/03 03:29:31;;;;;;;6.25;3.85;;;-0.70;99.90;;;;;;5037535;28;20163;-84
2022/04/03 03:31:59;;;;;;;5.03;4.05;;;-0.90;99.90;;;;;;5038295;28;20037;-83
2022/04/03 03:34:25;;;;;;;4.63;4.10;;;-0.90;99.90;;;;;;5037422;28;20037;-83
2022/04/03 03:36:51;;;;;;;5.05;4.10;;;-0.80;99.90;;;;;;5028677;28;20037;-84
2022/04/03 03:39:17;;;;;;;5.53;4.00;;;-0.70;99.90;;;;;;5038144;28;20411;-84
2022/04/03 03:41:43;;;;;;;6.72;4.20;;;-0.60;99.90;;;;;;5018419;28;20071;-84
2022/04/03 03:44:12;;;;;;;5.65;4.45;;;-0.50;99.90;;;;;;5017877;28;20038;-83
2022/04/03 03:46:39;;;;;;;6.68;4.30;;;-0.40;99.90;;;;;;5029180;28;20037;-84
2022/04/03 03:49:06;;;;;;;4.80;4.30;;;-0.30;99.90;;;;;;5037322;28;20056;-84
2022/04/03 03:51:33;;;;;;;7.22;4.15;;;-0.20;99.90;;;;;;5039537;28;20037;-84
2022/04/03 03:53:58;;;;;;;5.28;3.95;;;-0.20;99.90;;;;;;5037688;28;20379;-84
2022/04/03 03:56:24;;;;;;;7.22;4.00;;;-0.10;99.90;;;;;;5037176;28;20048;-84
2022/04/03 03:58:52;;;;;;;5.20;4.55;;;0.00;99.90;;;;;;5036852;28;20039;-84
2022/04/03 04:01:17;;;;;;;5.05;4.55;;;0.00;99.90;;;;;;5039845;28;20124;-84
2022/04/03 04:03:43;;;;;;;5.45;4.05;;;0.10;99.90;;;;;;5039250;28;20501;-83
2022/04/03 04:06:08;;;;;;;6.05;4.57;;;0.10;99.90;;;;;;5032217;28;20053;-84
2022/04/03 04:08:34;;;;;;;7.75;4.38;;;0.10;99.90;;;;;;5037677;28;20124;-84
2022/04/03 04:10:59;;;;;;;6.18;4.47;;;0.20;99.90;;;;;;5038346;28;20045;-84
2022/04/03 04:13:25;;;;;;;4.32;3.85;;;0.20;99.90;;;;;;5038171;28;20049;-84
2022/04/03 04:15:51;;;;;;;5.22;4.72;;;0.20;99.90;;;;;;5038471;28;20033;-83
2022/04/03 04:18:16;;;;;;;5.05;4.30;;;0.30;99.90;;;;;;5037879;28;20487;-84
2022/04/03 04:20:42;;;;;;;4.30;3.90;;;0.30;99.90;;;;;;5038867;28;20814;-84
2022/04/03 04:23:09;;;;;;;5.25;4.55;;;0.40;99.90;;;;;;5037368;28;20044;-85
2022/04/03 04:25:34;;;;;;;5.32;3.95;;;0.40;99.90;;;;;;5037382;28;20383;-84
2022/04/03 04:28:00;;;;;;;4.47;3.92;;;0.40;99.90;;;;;;5048119;28;20042;-83
2022/04/03 04:30:26;;;;;;;5.70;4.35;;;0.40;99.90;;;;;;5037610;28;20093;-85
2022/04/03 04:32:52;;;;;;;5.75;3.70;;;0.50;99.90;;;;;;5035546;28;20048;-84
2022/04/03 04:35:17;;;;;;;4.85;4.13;;;0.50;99.90;;;;;;5037154;28;20038;-85
2022/04/03 04:37:43;;;;;;;4.40;3.92;;;0.50;99.90;;;;;;5027734;28;20055;-85
2022/04/03 04:40:10;;;;;;;4.43;3.95;;;0.50;99.90;;;;;;5036068;28;20156;-85
2022/04/03 04:42:36;;;;;;;5.60;4.43;;;0.50;99.90;;;;;;5018362;28;21756;-85
2022/04/03 04:45:02;;;;;;;4.28;3.88;;;0.40;99.90;;;;;;5035799;28;20068;-85
2022/04/03 04:47:28;;;;;;;4.88;4.30;;;0.40;99.90;;;;;;5046331;28;20479;-84
2022/04/03 04:49:53;;;;;;;4.63;4.15;;;0.30;99.90;;;;;;5035522;28;20033;-84
2022/04/03 04:52:19;;;;;;;4.68;4.15;;;0.30;99.90;;;;;;5036987;28;20479;-85
2022/04/03 04:54:44;;;;;;;5.30;4.50;;;0.20;99.90;;;;;;5036368;28;20506;-84
2022/04/03 04:57:10;;;;;;;4.40;3.95;;;0.20;99.90;;;;;;5035986;28;20081;-84
2022/04/03 04:59:36;;;;;;;5.93;3.97;;;0.20;99.90;;;;;;5033544;28;20068;-85
2022/04/03 05:02:01;;;;;;;4.57;4.10;;;0.20;99.90;;;;;;5024784;28;20049;-85
2022/04/03 05:04:27;;;;;;;6.45;4.53;;;0.20;99.90;;;;;;5037701;28;20171;-85
2022/04/03 05:06:53;;;;;;;4.47;3.67;;;0.20;99.90;;;;;;5029785;28;20045;-85
2022/04/03 05:09:19;;;;;;;5.72;4.25;;;0.20;99.90;;;;;;5030442;28;20095;-84
2022/04/03 05:11:49;;;;;;;6.40;4.18;;;0.20;99.90;;;;;;5031049;28;20048;-86
2022/04/03 05:14:15;;;;;;;5.05;3.63;;;0.20;99.90;;;;;;5034274;28;20048;-85
2022/04/03 05:16:41;;;;;;;4.90;4.40;;;0.10;99.90;;;;;;5032224;28;20109;-85
2022/04/03 05:19:07;;;;;;;4.82;4.22;;;0.10;99.90;;;;;;5034834;28;20056;-85
2022/04/03 05:21:33;;;;;;;5.95;4.60;;;0.00;99.90;;;;;;5019655;28;20049;-85
2022/04/03 05:24:02;;;;;;;4.88;4.38;;;-0.10;99.90;;;;;;5035988;28;20116;-85
2022/04/03 05:26:27;;;;;;;5.25;3.90;;;-0.10;99.90;;;;;;5034546;28;20124;-86
2022/04/03 05:28:53;;;;;;;5.55;4.05;;;-0.10;99.90;;;;;;5030971;28;20030;-86
2022/04/03 05:31:18;;;;;;;4.20;3.65;;;-0.10;99.90;;;;;;5013816;28;20037;-85
2022/04/03 05:33:45;;;;;;;5.15;4.10;;;-0.10;99.90;;;;;;5014063;28;20117;-85
2022/04/03 05:36:11;;;;;;;5.88;4.10;;;-0.20;99.90;;;;;;5013516;28;20045;-84
2022/04/03 05:38:36;;;;;;;4.50;4.10;;;-0.10;99.90;;;;;;5015390;28;20048;-85
2022/04/03 05:41:02;;;;;;;5.20;4.18;;;-0.10;99.90;;;;;;5038213;28;20048;-85
2022/04/03 05:43:28;;;;;;;5.95;3.65;;;-0.10;99.90;;;;;;5036123;28;20041;-85
2022/04/03 05:45:53;;;;;;;5.95;4.25;;;-0.10;99.90;;;;;;5012222;28;20045;-85
2022/04/03 05:48:19;;;;;;;5.18;4.68;;;-0.20;99.90;;;;;;5041445;28;20030;-84
2022/04/03 05:50:45;;;;;;;4.68;3.97;;;-0.20;99.90;;;;;;5039390;28;20111;-84
2022/04/03 05:53:10;;;;;;;5.88;4.57;;;-0.20;99.90;;;;;;5039959;28;20075;-84
2022/04/03 05:55:36;;;;;;;5.22;4.68;;;-0.10;99.90;;;;;;5027492;28;20108;-85
2022/04/03 05:58:02;;;;;;;7.25;5.70;;;-0.10;99.90;;;;;;5039599;28;20042;-84
2022/04/03 06:00:27;;;;;;;5.53;4.65;;;-0.10;99.90;;;;;;5027283;28;20037;-83
2022/04/03 06:03:00;;;;;;;4.90;4.40;;;0.00;99.90;;;;;;5034580;28;20132;-86
2022/04/03 06:05:26;;;;;;;;;;;0.10;99.90;;;;;;5026013;28;20044;-85
2022/04/03 06:07:51;;;;;;;8.68;4.30;;;0.40;99.90;;;;;;5030199;28;20043;-83
2022/04/03 06:10:22;;;;;;;5.25;4.20;;;0.50;99.90;;;;;;5031012;28;20049;-84
2022/04/03 06:13:07;;;;;;;6.57;4.20;;;0.90;99.90;;;;;;5032577;28;20037;-86
2022/04/03 06:15:39;;;;;;;4.65;4.18;;;1.50;99.90;;;;;;5036761;28;20041;-86
2022/04/03 06:18:08;;;;;;;6.25;3.70;;;1.80;99.90;;;;;;5038276;28;20564;-87
2022/04/03 06:20:35;;;;;;;4.05;3.70;;;1.90;99.90;;;;;;5025661;28;20042;-85
2022/04/03 06:23:02;;;;;;;4.30;3.90;;;2.00;99.90;;;;;;5036045;28;20120;-85
2022/04/03 06:25:30;;;;;;;5.10;3.78;;;2.00;99.90;;;;;;5019928;28;20420;-84
2022/04/03 06:27:56;;;;;;;3.58;3.25;;;2.30;99.90;;;;;;5037060;28;20111;-76
2022/04/03 06:30:22;;;;;;;3.05;2.80;;;3.50;99.90;;;;;;5038038;28;20041;-85
2022/04/03 06:32:48;;;;;;;3.70;3.00;;;4.90;99.90;;;;;;5039035;28;20056;-85
2022/04/03 06:35:14;;;;;;;3.35;2.60;;;6.20;99.90;;;;;;5034447;28;20475;-83
2022/04/03 06:37:41;;;;;;;6.45;2.55;;;7.50;99.90;;;;;;5037327;28;20042;-85
2022/04/03 06:40:07;;;;;;;4.15;2.80;;;8.60;99.90;;;;;;5031332;28;20037;-84
2022/04/03 06:42:34;;;;;;;4.22;2.50;;;9.40;99.90;;;;;;5036050;28;20049;-86
2022/04/03 06:45:01;;;;;;;4.13;2.25;;;10.00;99.90;;;;;;5037984;28;20041;-86
2022/04/03 06:47:27;;;;;;;2.40;2.05;;;10.70;99.90;;;;;;5037151;28;20038;-86
2022/04/03 06:49:53;;;;;;;4.10;2.40;;;11.40;96.50;;;;;;5038305;28;20043;-83
2022/04/03 06:52:18;;;;;;;2.28;1.98;;;11.80;94.20;;;;;;5034628;28;20029;-86
2022/04/03 06:54:44;;;;;;;2.53;1.50;;;12.30;96.60;;;;;;5036115;28;20487;-84
2022/04/03 06:57:15;;;;;;;4.78;1.98;;;11.90;96.00;;;;;;5035798;28;20149;-84
2022/04/03 06:59:42;;;;;;;2.93;2.57;;;10.40;94.70;;;;;;5035396;28;20687;-84
2022/04/03 07:02:08;;;;;;;3.70;2.10;;;9.50;99.70;;;;;;5019686;28;20414;-84
2022/04/03 07:04:36;;;;;;;3.05;2.83;;;8.50;99.90;;;;;;5037829;28;20041;-86
2022/04/03 07:07:03;;;;;;;3.17;2.20;;;7.90;99.90;;;;;;5035705;28;20068;-84
2022/04/03 07:09:29;;;;;;;3.63;2.03;;;8.10;99.90;;;;;;5030116;28;20053;-85
2022/04/03 07:11:55;;;;;;;3.30;2.00;;;8.20;99.90;;;;;;5032649;28;20037;-85
2022/04/03 07:14:20;;;;;;;3.20;1.80;;;9.10;99.90;;;;;;5027571;28;20045;-87
2022/04/03 07:16:46;;;;;;;4.40;1.92;;;10.40;99.90;;;;;;5033713;28;20041;-86
2022/04/03 07:19:11;;;;;;;2.83;1.90;;;11.60;99.50;;;;;;5034179;28;20124;-84
2022/04/03 07:21:37;;;;;;;3.50;1.48;;;12.60;96.10;;;;;;5021368;28;20058;-86
2022/04/03 07:24:04;;;;;;;2.90;1.98;;;13.30;91.70;;;;;;5034572;28;20466;-85
2022/04/03 07:26:30;;;;;;;4.47;1.50;;;13.30;90.70;;;;;;5030031;28;20054;-85
2022/04/03 07:28:56;;;;;;;2.90;1.55;;;13.20;90.30;;;;;;5036370;28;20089;-85
2022/04/03 07:31:22;;;;;;;4.22;1.75;;;13.80;89.60;;;;;;5035576;28;20772;-85
2022/04/03 07:33:48;;;;;;;2.05;1.60;;;14.20;85.90;;;;;;5027239;28;20049;-86
2022/04/03 07:36:14;;;;;;;4.72;2.70;;;14.50;82.80;;;;;;5033635;28;20038;-85
2022/04/03 07:38:40;;;;;;;8.93;3.95;;;14.70;81.20;;;;;;5031917;28;20040;-81
2022/04/03 07:41:05;;;;;;;3.65;1.52;;;14.90;77.90;;;;;;5036611;28;20094;-86
2022/04/03 07:43:32;;;;;;;3.80;1.30;;;14.70;73.70;;;;;;5037395;28;20051;-85
2022/04/03 07:45:58;;;;;;;1.65;0.85;;;14.20;76.80;;;;;;5024443;28;20054;-86
2022/04/03 07:48:23;;;;;;;1.73;1.00;;;13.10;78.20;;;;;;5027184;28;20044;-83
2022/04/03 07:50:51;;;;;;;3.05;1.15;;;12.10;83.70;;;;;;5036000;28;20041;-85
2022/04/03 07:53:17;;;;;;;2.17;1.05;;;11.20;90.90;;;;;;5035203;28;20049;-87
2022/04/03 07:55:42;;;;;;;2.10;1.10;;;10.50;94.10;;;;;;5035305;28;20030;-86
2022/04/03 07:58:09;;;;;;;3.28;1.05;;;9.70;95.90;;;;;;5020037;28;20384;-86
2022/04/03 08:00:35;;;;;;;1.95;1.10;;;9.20;98.00;;;;;;5029412;28;20029;-86
2022/04/03 08:03:00;;;;;;;2.95;1.30;;;8.80;99.80;;;;;;5031200;28;20111;-86
2022/04/03 08:05:26;;;;;;;9.95;1.13;;;8.50;99.90;;;;;;5035829;28;20060;-87
2022/04/03 08:07:52;;;;;;;2.72;1.10;;;8.40;99.90;;;;;;5034524;28;20056;-86
2022/04/03 08:10:21;;;;;;;2.28;1.13;;;8.20;99.90;;;;;;5013090;28;20387;-85
2022/04/03 08:12:49;;;;;;;4.20;1.25;;;8.10;99.90;;;;;;5033078;28;20124;-87
2022/04/03 08:15:17;;;;;;;2.53;1.20;;;8.10;99.90;;;;;;5029983;28;20049;-86
2022/04/03 08:17:44;;;;;;;2.45;1.10;;;8.10;99.90;;;;;;5036524;28;20044;-84
2022/04/03 08:20:12;;;;;;;2.38;0.98;;;8.30;99.90;;;;;;5043342;28;20101;-86
2022/04/03 08:22:40;;;;;;;2.53;1.10;;;8.30;99.90;;;;;;5029013;28;20565;-86
2022/04/03 08:25:07;;;;;;;3.15;1.13;;;8.30;99.90;;;;;;5032406;28;20643;-86
2022/04/03 08:27:42;;;;;;;1.63;0.85;;;8.20;99.90;;;;;;5014855;28;20037;-86
2022/04/03 08:30:10;;;;;;;3.78;1.23;;;8.00;99.90;;;;;;5021388;28;20041;-85
2022/04/03 08:32:36;;;;;;;3.75;0.88;;;8.10;99.90;;;;;;5033465;28;20075;-85
2022/04/03 08:35:01;;;;;;;2.35;0.68;;;8.10;99.90;;;;;;5035683;28;20548;-85
2022/04/03 08:37:28;;;;;;;2.25;0.90;;;8.00;99.90;;;;;;5035797;28;20479;-87
2022/04/03 08:39:57;;;;;;;1.75;0.90;;;8.10;99.90;;;;;;5033255;28;20091;-86
2022/04/03 08:42:23;;;;;;;3.20;1.20;;;8.30;99.90;;;;;;5031299;28;20045;-87
2022/04/03 08:44:48;;;;;;;3.92;1.02;;;8.10;99.90;;;;;;5028397;28;20046;-85
2022/04/03 08:47:17;;;;;;;5.38;1.33;;;8.00;99.90;;;;;;5027539;28;20037;-86
2022/04/03 08:49:45;;;;;;;3.13;1.20;;;7.90;99.90;;;;;;5028056;28;20060;-84
2022/04/03 08:52:13;;;;;;;2.63;0.80;;;7.80;99.90;;;;;;5016840;28;20534;-85
2022/04/03 08:54:40;;;;;;;2.25;0.70;;;7.80;99.90;;;;;;5037257;28;20095;-86
2022/04/03 08:57:06;;;;;;;2.60;0.50;;;8.00;99.90;;;;;;5030758;28;20415;-85
2022/04/03 08:59:31;;;;;;;2.05;0.57;;;7.90;99.90;;;;;;5034248;28;20051;-85
2022/04/03 09:01:57;;;;;;;1.67;0.50;;;7.90;99.90;;;;;;5036182;28;20445;-85
2022/04/03 09:04:23;;;;;;;1.90;0.40;;;8.10;99.90;;;;;;5019347;28;20101;-86
2022/04/03 09:06:57;;;;;;;1.70;0.80;;;8.30;99.90;;;;;;5022165;28;20100;-86
2022/04/03 09:09:24;;;;;;;1.20;0.60;;;8.20;98.60;;;;;;5026175;28;20198;-86
2022/04/03 09:12:13;;;;;;;1.95;0.57;;;8.50;99.10;;;;;;5029485;28;20038;-85
2022/04/03 09:14:54;;;;;;;3.60;0.80;;;8.80;98.50;;;;;;5034695;28;20113;-85
2022/04/03 09:17:37;;;;;;;2.63;0.50;;;9.00;98.30;;;;;;5035404;28;20046;-85
2022/04/03 09:20:08;;;;;;;1.70;0.55;;;9.20;98.30;;;;;;5036332;28;20830;-85
2022/04/03 09:22:37;;;;;;;2.80;0.50;;;9.20;97.70;;;;;;5035915;28;20747;-86
2022/04/03 09:25:05;;;;;;;1.63;0.63;;;9.20;97.30;;;;;;5035075;28;20054;-84
2022/04/03 09:27:48;;;;;;;1.38;0.68;;;8.80;93.70;;;;;;5039231;28;20077;-85
2022/04/03 09:30:14;;;;;;;2.10;1.00;;;8.60;95.30;;;;;;5037669;28;20048;-85
2022/04/03 09:32:47;;;;;;;1.65;0.55;;;8.70;98.10;;;;;;5010110;28;20061;-84
2022/04/03 09:35:14;;;;;;;2.88;0.50;;;9.10;98.30;;;;;;5009883;28;20375;-85
2022/04/03 09:37:59;;;;;;;2.75;0.90;;;9.30;96.40;;;;;;5033393;28;20101;-84
2022/04/03 09:40:33;;;;;;;2.47;0.88;;;9.40;98.20;;;;;;5028986;28;20083;-83
2022/04/03 09:43:24;;;;;;;3.67;1.02;;;9.50;97.80;;;;;;5021734;28;20099;-86
2022/04/03 09:46:01;;;;;;;2.03;0.50;;;9.40;98.20;;;;;;5027228;28;20115;-86
2022/04/03 09:48:28;;;;;;;2.50;0.80;;;9.20;96.80;;;;;;5035773;28;20041;-85
2022/04/03 09:51:03;;;;;;;1.58;0.70;;;8.60;97.10;;;;;;5030418;28;20033;-83
2022/04/03 09:53:52;;;;;;;2.25;0.70;;;8.40;98.50;;;;;;5032700;28;20447;-84
2022/04/03 09:56:23;;;;;;;2.92;0.65;;;8.50;99.30;;;;;;5033914;28;20573;-86
2022/04/03 09:58:51;;;;;;;3.97;1.02;;;8.40;99.70;;;;;;5045698;28;20100;-85
2022/04/03 10:01:28;;;;;;;3.00;1.00;;;8.30;99.90;;;;;;5019456;28;20050;-85
2022/04/03 10:03:55;;;;;;;2.83;1.27;;;8.30;99.90;;;;;;5013570;28;20053;-84
2022/04/03 10:06:21;;;;;;;1.58;0.73;;;8.50;99.90;;;;;;5017208;28;20054;-82
2022/04/03 10:08:49;;;;;;;2.33;0.80;;;8.80;99.80;;;;;;5018932;28;20080;-84
2022/04/03 10:11:15;;;;;;;1.23;0.50;;;9.00;99.00;;;;;;5036231;28;20040;-84
2022/04/03 10:13:43;;;;;;;2.47;0.80;;;9.40;98.70;;;;;;5020184;28;20103;-83
2022/04/03 10:16:10;;;;;;;2.28;0.75;;;9.70;97.60;;;;;;5021791;28;20037;-85
2022/04/03 10:18:36;;;;;;;2.05;0.90;;;9.70;97.20;;;;;;5018369;28;20050;-85
2022/04/03 10:21:04;;;;;;;1.42;0.85;;;9.40;97.50;;;;;;5039243;22;20151;-77
2022/04/03 10:23:31;;;;;;;1.02;0.63;;;9.20;98.70;;;;;;5049603;28;20593;-76
2022/04/03 10:25:58;;;;;;;2.20;0.95;;;8.80;99.00;;;;;;5045639;28;20061;-76
2022/04/03 10:28:24;;;;;;;2.25;0.70;;;8.60;99.90;;;;;;5045939;28;20402;-76
2022/04/03 10:30:59;;;;;;;5.40;1.55;;;8.70;99.60;;;;;;5034499;28;20029;-76
2022/04/03 10:33:36;;;;;;;2.72;0.60;;;8.70;99.90;;;;;;5027958;28;20037;-77
2022/04/03 10:36:11;;;;;;;1.73;0.57;;;9.10;99.40;;;;;;5051936;28;20045;-77
2022/04/03 10:38:44;;;;;;;2.70;0.95;;;9.40;98.40;;;;;;5050204;28;20037;-75
2022/04/03 10:41:45;;;;;;;2.78;0.73;;;9.60;98.80;;;;;;5046920;28;20037;-77
2022/04/03 10:44:22;;;;;;;2.75;0.90;;;9.60;97.60;;;;;;4990993;28;20038;-76
2022/04/03 10:47:03;;;;;;;2.72;0.90;;;9.40;98.70;;;;;;5042357;28;20118;-77
2022/04/03 10:49:49;;;;;;;2.78;1.00;;;9.20;97.40;;;;;;5056814;28;20033;-77
2022/04/03 10:52:17;;;;;;;2.28;1.30;;;9.30;97.10;;;;;;5045028;28;20040;-77
2022/04/03 10:55:00;;;;;;;1.58;0.50;;;9.40;92.60;;;;;;5020539;28;20103;-76
2022/04/03 10:57:40;;;;;;;0.95;0.38;;;9.50;84.70;;;;;;5046808;28;20049;-77
2022/04/03 11:00:12;;;;;;;1.55;0.60;;;9.50;91.20;;;;;;5039253;28;20076;-76
2022/04/03 11:02:49;;;;;;;2.05;0.50;;;9.50;91.20;;;;;;5039498;28;20049;-76
2022/04/03 11:05:26;;;;;;;1.50;0.65;;;9.70;94.70;;;;;;5051420;28;20037;-77
2022/04/03 11:07:52;;;;;;;3.67;0.60;;;9.50;91.70;;;;;;5048420;28;20042;-76
2022/04/03 11:10:52;;;;;;;2.13;0.50;;;9.40;94.80;;;;;;5038232;28;20527;-77
2022/04/03 11:13:21;;;;;;;3.40;0.70;;;9.30;95.00;;;;;;5044657;28;20064;-76
2022/04/03 11:16:01;;;;;;;2.80;1.50;;;9.00;94.60;;;;;;5049199;28;20037;-77
2022/04/03 11:18:51;;;;;;;1.65;0.60;;;9.00;93.80;;;;;;5045803;28;20034;-76
2022/04/03 11:21:50;;;;;;;1.55;0.70;;;9.10;96.00;;;;;;5041814;28;20053;-76
2022/04/03 11:24:17;;;;;;;4.50;1.20;;;9.10;94.80;;;;;;5021512;28;20056;-77
2022/04/03 11:26:43;;;;;;;4.88;2.05;;;9.00;96.10;;;;;;5044644;28;20045;-76
2022/04/03 11:29:10;;;;;;;5.38;2.17;;;9.00;96.50;;;;;;5046607;28;20148;-75
2022/04/03 11:31:38;;;;;;;1.85;0.93;;;8.90;97.20;;;;;;5025499;28;20053;-75
2022/04/03 11:34:06;;;;;;;3.78;0.95;;;8.60;97.40;;;;;;5048829;28;20053;-75
2022/04/03 11:36:33;;;;;;;2.85;0.95;;;8.50;98.60;;;;;;5055270;28;20751;-75
2022/04/03 11:39:05;;;;;;;2.42;1.00;;;8.30;99.10;;;;;;5050778;28;20441;-76
2022/04/03 11:41:38;;;;;;;2.13;1.00;;;8.30;99.90;;;;;;5051655;28;20383;-76
2022/04/03 11:44:04;;;;;;;2.60;0.90;;;8.40;99.90;;;;;;5041927;28;20045;-76
2022/04/03 11:46:36;;;;;;;2.25;0.90;;;8.50;99.90;;;;;;5031706;28;20441;-76
2022/04/03 11:49:09;;;;;;;;;;;8.50;98.90;;;;;;5049982;28;20485;-75
2022/04/03 11:51:35;;;;;;;1.88;0.75;;;8.80;99.00;;;;;;5045976;28;19924;-76
2022/04/03 11:54:00;;;;;;;1.95;0.80;;;8.80;98.40;;;;;;5048636;28;20537;-76
2022/04/03 11:56:31;;;;;;;1.05;0.70;;;8.70;98.20;;;;;;5039441;28;20075;-76
2022/04/03 11:58:58;;;;;;;1.58;0.88;;;8.70;98.30;;;;;;5033108;28;20052;-76
2022/04/03 12:01:28;;;;;;;1.88;1.50;;;8.50;98.70;;;;;;5050573;28;20124;-75
2022/04/03 12:04:08;;;;;;;4.13;1.60;;;8.70;99.40;;;;;;5033435;28;20044;-75
2022/04/03 12:06:34;;;;;;;3.65;1.50;;;8.20;99.90;;;;;;5046002;28;20056;-75
2022/04/03 12:09:04;;;;;;;3.90;1.20;;;8.40;99.90;;;;;;5039244;28;20040;-75
2022/04/03 12:11:31;;;;;;;3.58;1.95;;;8.40;99.90;;;;;;5050636;28;20072;-75
2022/04/03 12:13:59;;;;;;;2.78;1.05;;;8.30;99.90;;;;;;5025892;28;20078;-75
2022/04/03 12:16:30;;;;;;;3.05;0.98;;;8.10;99.90;;;;;;5039280;28;20424;-76
2022/04/03 12:19:08;;;;;;;3.53;1.00;;;8.20;99.90;;;;;;5043569;28;20047;-76
2022/04/03 12:21:36;;;;;;;2.08;0.60;;;8.30;99.90;;;;;;5051146;28;20458;-75
2022/04/03 12:24:25;;;;;;;1.25;0.40;;;8.50;99.90;;;;;;5050283;28;20085;-75
2022/04/03 12:26:59;;;;;;;0.88;0.60;;;8.20;99.00;;;;;;5049464;28;20037;-75
2022/04/03 12:29:28;;;;;;;0.63;0.40;;;7.90;99.90;;;;;;5030174;28;20044;-75
2022/04/03 12:32:08;;;;;;;1.02;0.50;;;7.90;99.70;;;;;;5049072;28;20045;-75
2022/04/03 12:34:36;;;;;;;1.30;0.50;;;7.70;99.20;;;;;;5052011;28;20037;-75
2022/04/03 12:37:04;;;;;;;0.95;0.43;;;7.60;98.90;;;;;;5050528;28;20063;-77
2022/04/03 12:39:40;;;;;;;0.63;0.40;;;7.60;99.90;;;;;;5040675;28;20437;-75
2022/04/03 12:42:13;;;;;;;0.40;0.40;;;7.60;98.50;;;;;;5045321;28;20151;-75
2022/04/03 12:44:59;;;;;;;2.90;0.50;;;7.70;99.90;;;;;;5040816;28;20043;-75
2022/04/03 12:47:32;;;;;;;1.52;0.50;;;7.80;99.10;;;;;;5045257;28;20082;-75
2022/04/03 12:50:06;;;;;;;1.52;0.40;;;7.90;97.90;;;;;;5041823;28;20231;-75
2022/04/03 12:52:46;;;;;;;1.20;0.60;;;8.00;98.40;;;;;;5049341;28;20131;-74
2022/04/03 12:55:21;;;;;;;0.65;0.40;;;8.00;96.00;;;;;;5040454;28;20106;-75
2022/04/03 13:01:06;;;;;;;0.98;0.30;;;8.20;97.80;;;;;;5041351;28;20048;-76
2022/04/03 13:03:37;;;;;;;1.90;0.40;;;8.40;98.60;;;;;;5051370;28;20083;-75